sensor_id;sensor_type;location;lat;lon;timestamp;P1;durP1;ratioP1;P2;durP2;ratioP2
56653;SDS011;45096;52.302;4.634;2023-08-21T00:02:22;4.43;;;1.35;;
56653;SDS011;45096;52.302;4.634;2023-08-21T00:04:47;2.10;;;1.52;;
56653;SDS011;45096;52.302;4.634;2023-08-21T00:07:13;2.85;;;1.40;;
56653;SDS011;45096;52.302;4.634;2023-08-21T00:09:40;1.67;;;1.42;;
56653;SDS011;45096;52.302;4.634;2023-08-21T00:12:05;1.50;;;1.35;;
56653;SDS011;45096;52.302;4.634;2023-08-21T00:14:31;2.55;;;1.35;;
56653;SDS011;45096;52.302;4.634;2023-08-21T00:16:56;3.15;;;1.20;;
56653;SDS011;45096;52.302;4.634;2023-08-21T00:19:22;2.95;;;1.52;;
56653;SDS011;45096;52.302;4.634;2023-08-21T00:21:47;2.53;;;1.45;;
56653;SDS011;45096;52.302;4.634;2023-08-21T00:24:13;2.55;;;1.52;;
56653;SDS011;45096;52.302;4.634;2023-08-21T00:26:39;1.83;;;1.55;;
56653;SDS011;45096;52.302;4.634;2023-08-21T00:29:05;2.95;;;1.67;;
56653;SDS011;45096;52.302;4.634;2023-08-21T00:31:30;1.60;;;1.50;;
56653;SDS011;45096;52.302;4.634;2023-08-21T00:33:56;1.45;;;1.30;;
56653;SDS011;45096;52.302;4.634;2023-08-21T00:36:21;1.60;;;1.50;;
56653;SDS011;45096;52.302;4.634;2023-08-21T00:38:46;1.90;;;1.40;;
56653;SDS011;45096;52.302;4.634;2023-08-21T00:41:12;3.72;;;1.45;;
56653;SDS011;45096;52.302;4.634;2023-08-21T00:43:39;2.33;;;1.58;;
56653;SDS011;45096;52.302;4.634;2023-08-21T00:46:04;1.88;;;1.30;;
56653;SDS011;45096;52.302;4.634;2023-08-21T00:48:30;1.67;;;1.48;;
56653;SDS011;45096;52.302;4.634;2023-08-21T00:50:56;2.17;;;1.65;;
56653;SDS011;45096;52.302;4.634;2023-08-21T00:53:21;3.83;;;1.70;;
56653;SDS011;45096;52.302;4.634;2023-08-21T00:55:47;1.42;;;1.35;;
56653;SDS011;45096;52.302;4.634;2023-08-21T00:58:12;2.35;;;1.60;;
56653;SDS011;45096;52.302;4.634;2023-08-21T01:00:40;1.85;;;1.38;;
56653;SDS011;45096;52.302;4.634;2023-08-21T01:03:06;2.63;;;1.58;;
56653;SDS011;45096;52.302;4.634;2023-08-21T01:05:31;2.65;;;1.38;;
56653;SDS011;45096;52.302;4.634;2023-08-21T01:07:59;2.95;;;1.30;;
56653;SDS011;45096;52.302;4.634;2023-08-21T01:10:29;2.50;;;1.30;;
56653;SDS011;45096;52.302;4.634;2023-08-21T01:13:01;2.30;;;1.60;;
56653;SDS011;45096;52.302;4.634;2023-08-21T01:15:31;1.83;;;1.40;;
56653;SDS011;45096;52.302;4.634;2023-08-21T01:17:59;2.97;;;1.55;;
56653;SDS011;45096;52.302;4.634;2023-08-21T01:20:24;1.27;;;1.17;;
56653;SDS011;45096;52.302;4.634;2023-08-21T01:22:50;3.42;;;1.63;;
56653;SDS011;45096;52.302;4.634;2023-08-21T01:25:17;1.27;;;1.08;;
56653;SDS011;45096;52.302;4.634;2023-08-21T01:27:43;1.55;;;1.33;;
56653;SDS011;45096;52.302;4.634;2023-08-21T01:30:11;3.30;;;1.48;;
56653;SDS011;45096;52.302;4.634;2023-08-21T01:32:39;2.40;;;1.67;;
56653;SDS011;45096;52.302;4.634;2023-08-21T01:35:08;3.78;;;1.40;;
56653;SDS011;45096;52.302;4.634;2023-08-21T01:37:34;3.45;;;1.52;;
56653;SDS011;45096;52.302;4.634;2023-08-21T01:40:00;3.40;;;1.48;;
56653;SDS011;45096;52.302;4.634;2023-08-21T01:42:27;2.40;;;1.52;;
56653;SDS011;45096;52.302;4.634;2023-08-21T01:44:53;1.75;;;1.58;;
56653;SDS011;45096;52.302;4.634;2023-08-21T01:47:18;3.53;;;1.90;;
56653;SDS011;45096;52.302;4.634;2023-08-21T01:49:43;1.45;;;1.35;;
56653;SDS011;45096;52.302;4.634;2023-08-21T01:52:09;3.60;;;1.85;;
56653;SDS011;45096;52.302;4.634;2023-08-21T01:54:35;3.17;;;1.63;;
56653;SDS011;45096;52.302;4.634;2023-08-21T01:57:00;4.32;;;1.50;;
56653;SDS011;45096;52.302;4.634;2023-08-21T01:59:27;2.13;;;1.35;;
56653;SDS011;45096;52.302;4.634;2023-08-21T02:01:52;3.90;;;1.83;;
56653;SDS011;45096;52.302;4.634;2023-08-21T02:04:18;2.95;;;2.05;;
56653;SDS011;45096;52.302;4.634;2023-08-21T02:06:43;1.75;;;1.42;;
56653;SDS011;45096;52.302;4.634;2023-08-21T02:09:09;2.33;;;1.40;;
56653;SDS011;45096;52.302;4.634;2023-08-21T02:11:34;4.05;;;1.50;;
56653;SDS011;45096;52.302;4.634;2023-08-21T02:13:59;3.42;;;1.40;;
56653;SDS011;45096;52.302;4.634;2023-08-21T02:16:26;2.03;;;1.75;;
56653;SDS011;45096;52.302;4.634;2023-08-21T02:18:52;2.83;;;1.50;;
56653;SDS011;45096;52.302;4.634;2023-08-21T02:21:17;2.10;;;1.52;;
56653;SDS011;45096;52.302;4.634;2023-08-21T02:23:42;2.13;;;1.40;;
56653;SDS011;45096;52.302;4.634;2023-08-21T02:26:08;1.33;;;1.30;;
56653;SDS011;45096;52.302;4.634;2023-08-21T02:28:33;1.63;;;1.48;;
56653;SDS011;45096;52.302;4.634;2023-08-21T02:30:59;1.45;;;1.35;;
56653;SDS011;45096;52.302;4.634;2023-08-21T02:33:25;1.98;;;1.35;;
56653;SDS011;45096;52.302;4.634;2023-08-21T02:35:51;1.60;;;1.50;;
56653;SDS011;45096;52.302;4.634;2023-08-21T02:38:16;3.20;;;1.25;;
56653;SDS011;45096;52.302;4.634;2023-08-21T02:40:42;1.50;;;1.40;;
56653;SDS011;45096;52.302;4.634;2023-08-21T02:43:08;1.10;;;1.10;;
56653;SDS011;45096;52.302;4.634;2023-08-21T02:45:34;3.33;;;1.58;;
56653;SDS011;45096;52.302;4.634;2023-08-21T02:48:00;1.15;;;1.13;;
56653;SDS011;45096;52.302;4.634;2023-08-21T02:50:26;1.33;;;1.23;;
56653;SDS011;45096;52.302;4.634;2023-08-21T02:52:52;2.00;;;1.33;;
56653;SDS011;45096;52.302;4.634;2023-08-21T02:55:17;2.60;;;1.20;;
56653;SDS011;45096;52.302;4.634;2023-08-21T02:57:43;1.63;;;1.25;;
56653;SDS011;45096;52.302;4.634;2023-08-21T03:00:08;2.63;;;1.40;;
56653;SDS011;45096;52.302;4.634;2023-08-21T03:02:34;1.10;;;1.00;;
56653;SDS011;45096;52.302;4.634;2023-08-21T03:05:00;2.97;;;1.38;;
56653;SDS011;45096;52.302;4.634;2023-08-21T03:07:27;1.48;;;1.02;;
56653;SDS011;45096;52.302;4.634;2023-08-21T03:09:52;1.23;;;1.02;;
56653;SDS011;45096;52.302;4.634;2023-08-21T03:12:17;2.03;;;1.38;;
56653;SDS011;45096;52.302;4.634;2023-08-21T03:14:43;1.50;;;1.30;;
56653;SDS011;45096;52.302;4.634;2023-08-21T03:17:08;1.67;;;1.35;;
56653;SDS011;45096;52.302;4.634;2023-08-21T03:19:34;2.15;;;1.02;;
56653;SDS011;45096;52.302;4.634;2023-08-21T03:21:59;1.83;;;1.20;;
56653;SDS011;45096;52.302;4.634;2023-08-21T03:24:26;1.33;;;1.20;;
56653;SDS011;45096;52.302;4.634;2023-08-21T03:26:51;2.85;;;1.33;;
56653;SDS011;45096;52.302;4.634;2023-08-21T03:29:17;1.60;;;1.20;;
56653;SDS011;45096;52.302;4.634;2023-08-21T03:31:42;2.67;;;1.33;;
56653;SDS011;45096;52.302;4.634;2023-08-21T03:34:07;1.77;;;1.10;;
56653;SDS011;45096;52.302;4.634;2023-08-21T03:36:33;1.50;;;1.20;;
56653;SDS011;45096;52.302;4.634;2023-08-21T03:38:58;1.02;;;1.02;;
56653;SDS011;45096;52.302;4.634;2023-08-21T03:41:25;1.48;;;1.33;;
56653;SDS011;45096;52.302;4.634;2023-08-21T03:43:51;2.20;;;1.20;;
56653;SDS011;45096;52.302;4.634;2023-08-21T03:46:16;3.83;;;1.02;;
56653;SDS011;45096;52.302;4.634;2023-08-21T03:48:42;1.40;;;1.30;;
56653;SDS011;45096;52.302;4.634;2023-08-21T03:51:07;1.55;;;1.08;;
56653;SDS011;45096;52.302;4.634;2023-08-21T03:53:32;1.65;;;1.20;;
56653;SDS011;45096;52.302;4.634;2023-08-21T03:55:58;1.85;;;1.40;;
56653;SDS011;45096;52.302;4.634;2023-08-21T03:58:25;3.67;;;1.92;;
56653;SDS011;45096;52.302;4.634;2023-08-21T04:00:50;1.15;;;1.15;;
56653;SDS011;45096;52.302;4.634;2023-08-21T04:03:16;1.92;;;1.35;;
56653;SDS011;45096;52.302;4.634;2023-08-21T04:05:41;2.35;;;1.50;;
56653;SDS011;45096;52.302;4.634;2023-08-21T04:08:06;1.85;;;1.40;;
56653;SDS011;45096;52.302;4.634;2023-08-21T04:10:32;1.38;;;1.25;;
56653;SDS011;45096;52.302;4.634;2023-08-21T04:12:58;1.80;;;1.67;;
56653;SDS011;45096;52.302;4.634;2023-08-21T04:15:25;1.40;;;1.30;;
56653;SDS011;45096;52.302;4.634;2023-08-21T04:17:51;1.50;;;1.40;;
56653;SDS011;45096;52.302;4.634;2023-08-21T04:20:16;1.30;;;1.20;;
56653;SDS011;45096;52.302;4.634;2023-08-21T04:22:42;1.27;;;1.23;;
56653;SDS011;45096;52.302;4.634;2023-08-21T04:25:08;2.20;;;1.33;;
56653;SDS011;45096;52.302;4.634;2023-08-21T04:27:33;1.67;;;1.58;;
56653;SDS011;45096;52.302;4.634;2023-08-21T04:29:59;1.90;;;1.80;;
56653;SDS011;45096;52.302;4.634;2023-08-21T04:32:26;2.78;;;1.92;;
56653;SDS011;45096;52.302;4.634;2023-08-21T04:34:51;2.42;;;1.95;;
56653;SDS011;45096;52.302;4.634;2023-08-21T04:37:16;2.28;;;2.10;;
56653;SDS011;45096;52.302;4.634;2023-08-21T04:39:42;2.72;;;2.15;;
56653;SDS011;45096;52.302;4.634;2023-08-21T04:42:07;2.00;;;1.80;;
56653;SDS011;45096;52.302;4.634;2023-08-21T04:44:32;1.58;;;1.48;;
56653;SDS011;45096;52.302;4.634;2023-08-21T04:46:58;1.90;;;1.80;;
56653;SDS011;45096;52.302;4.634;2023-08-21T04:49:45;2.13;;;1.90;;
56653;SDS011;45096;52.302;4.634;2023-08-21T04:52:10;1.90;;;1.77;;
56653;SDS011;45096;52.302;4.634;2023-08-21T04:54:36;1.83;;;1.65;;
56653;SDS011;45096;52.302;4.634;2023-08-21T04:57:01;3.08;;;1.80;;
56653;SDS011;45096;52.302;4.634;2023-08-21T04:59:27;2.30;;;1.90;;
56653;SDS011;45096;52.302;4.634;2023-08-21T05:01:52;2.05;;;1.67;;
56653;SDS011;45096;52.302;4.634;2023-08-21T05:04:17;2.17;;;1.88;;
56653;SDS011;45096;52.302;4.634;2023-08-21T05:06:44;1.92;;;1.80;;
56653;SDS011;45096;52.302;4.634;2023-08-21T05:09:10;2.28;;;1.55;;
56653;SDS011;45096;52.302;4.634;2023-08-21T05:11:35;4.45;;;1.88;;
56653;SDS011;45096;52.302;4.634;2023-08-21T05:14:00;2.63;;;1.90;;
56653;SDS011;45096;52.302;4.634;2023-08-21T05:16:26;2.00;;;1.85;;
56653;SDS011;45096;52.302;4.634;2023-08-21T05:18:51;3.17;;;2.35;;
56653;SDS011;45096;52.302;4.634;2023-08-21T05:21:17;2.65;;;1.85;;
56653;SDS011;45096;52.302;4.634;2023-08-21T05:23:43;3.00;;;1.63;;
56653;SDS011;45096;52.302;4.634;2023-08-21T05:26:09;1.98;;;1.58;;
56653;SDS011;45096;52.302;4.634;2023-08-21T05:28:34;2.40;;;1.75;;
56653;SDS011;45096;52.302;4.634;2023-08-21T05:31:00;3.03;;;1.67;;
56653;SDS011;45096;52.302;4.634;2023-08-21T05:33:25;3.40;;;1.63;;
56653;SDS011;45096;52.302;4.634;2023-08-21T05:35:50;2.38;;;1.52;;
56653;SDS011;45096;52.302;4.634;2023-08-21T05:38:16;2.38;;;1.65;;
56653;SDS011;45096;52.302;4.634;2023-08-21T05:40:43;2.65;;;2.05;;
56653;SDS011;45096;52.302;4.634;2023-08-21T05:43:08;1.60;;;1.50;;
56653;SDS011;45096;52.302;4.634;2023-08-21T05:45:33;3.58;;;1.98;;
56653;SDS011;45096;52.302;4.634;2023-08-21T05:47:59;2.22;;;1.58;;
56653;SDS011;45096;52.302;4.634;2023-08-21T05:50:24;2.50;;;1.58;;
56653;SDS011;45096;52.302;4.634;2023-08-21T05:52:50;2.10;;;1.75;;
56653;SDS011;45096;52.302;4.634;2023-08-21T05:55:15;3.78;;;2.30;;
56653;SDS011;45096;52.302;4.634;2023-08-21T05:57:42;2.17;;;1.55;;
56653;SDS011;45096;52.302;4.634;2023-08-21T06:00:08;1.65;;;1.50;;
56653;SDS011;45096;52.302;4.634;2023-08-21T06:02:34;5.40;;;1.92;;
56653;SDS011;45096;52.302;4.634;2023-08-21T06:04:59;3.08;;;2.13;;
56653;SDS011;45096;52.302;4.634;2023-08-21T06:07:25;2.13;;;1.73;;
56653;SDS011;45096;52.302;4.634;2023-08-21T06:09:50;1.52;;;1.42;;
56653;SDS011;45096;52.302;4.634;2023-08-21T06:12:16;1.70;;;1.58;;
56653;SDS011;45096;52.302;4.634;2023-08-21T06:14:43;4.63;;;1.67;;
56653;SDS011;45096;52.302;4.634;2023-08-21T06:17:08;1.20;;;1.20;;
56653;SDS011;45096;52.302;4.634;2023-08-21T06:19:34;2.95;;;1.60;;
56653;SDS011;45096;52.302;4.634;2023-08-21T06:21:59;3.13;;;1.77;;
56653;SDS011;45096;52.302;4.634;2023-08-21T06:24:25;1.60;;;1.50;;
56653;SDS011;45096;52.302;4.634;2023-08-21T06:26:51;3.10;;;1.48;;
56653;SDS011;45096;52.302;4.634;2023-08-21T06:29:17;3.03;;;1.58;;
56653;SDS011;45096;52.302;4.634;2023-08-21T06:31:46;3.35;;;1.58;;
56653;SDS011;45096;52.302;4.634;2023-08-21T06:34:12;4.43;;;1.63;;
56653;SDS011;45096;52.302;4.634;2023-08-21T06:36:37;4.18;;;1.92;;
56653;SDS011;45096;52.302;4.634;2023-08-21T06:39:03;2.67;;;2.00;;
56653;SDS011;45096;52.302;4.634;2023-08-21T06:41:29;3.58;;;1.75;;
56653;SDS011;45096;52.302;4.634;2023-08-21T06:43:55;2.10;;;1.80;;
56653;SDS011;45096;52.302;4.634;2023-08-21T06:46:22;3.65;;;2.10;;
56653;SDS011;45096;52.302;4.634;2023-08-21T06:48:48;3.40;;;2.10;;
56653;SDS011;45096;52.302;4.634;2023-08-21T06:51:14;4.05;;;1.80;;
56653;SDS011;45096;52.302;4.634;2023-08-21T06:53:39;3.22;;;2.15;;
56653;SDS011;45096;52.302;4.634;2023-08-21T06:56:05;4.03;;;1.80;;
56653;SDS011;45096;52.302;4.634;2023-08-21T06:58:30;3.58;;;2.13;;
56653;SDS011;45096;52.302;4.634;2023-08-21T07:00:55;7.35;;;2.83;;
56653;SDS011;45096;52.302;4.634;2023-08-21T07:03:21;5.97;;;2.35;;
56653;SDS011;45096;52.302;4.634;2023-08-21T07:05:49;2.90;;;1.88;;
56653;SDS011;45096;52.302;4.634;2023-08-21T07:08:18;1.95;;;1.73;;
56653;SDS011;45096;52.302;4.634;2023-08-21T07:10:43;3.80;;;2.22;;
56653;SDS011;45096;52.302;4.634;2023-08-21T07:13:09;2.25;;;1.90;;
56653;SDS011;45096;52.302;4.634;2023-08-21T07:15:34;3.38;;;2.65;;
56653;SDS011;45096;52.302;4.634;2023-08-21T07:18:00;3.25;;;1.98;;
56653;SDS011;45096;52.302;4.634;2023-08-21T07:20:25;3.45;;;1.77;;
56653;SDS011;45096;52.302;4.634;2023-08-21T07:22:52;3.78;;;2.15;;
56653;SDS011;45096;52.302;4.634;2023-08-21T07:25:17;4.03;;;2.15;;
56653;SDS011;45096;52.302;4.634;2023-08-21T07:27:43;2.50;;;2.25;;
56653;SDS011;45096;52.302;4.634;2023-08-21T07:30:08;3.97;;;2.00;;
56653;SDS011;45096;52.302;4.634;2023-08-21T07:32:34;5.65;;;2.03;;
56653;SDS011;45096;52.302;4.634;2023-08-21T07:35:00;4.57;;;2.72;;
56653;SDS011;45096;52.302;4.634;2023-08-21T07:37:25;2.83;;;2.38;;
56653;SDS011;45096;52.302;4.634;2023-08-21T07:39:52;4.68;;;2.25;;
56653;SDS011;45096;52.302;4.634;2023-08-21T07:42:17;6.78;;;1.95;;
56653;SDS011;45096;52.302;4.634;2023-08-21T07:44:43;3.03;;;2.50;;
56653;SDS011;45096;52.302;4.634;2023-08-21T07:47:09;4.80;;;2.03;;
56653;SDS011;45096;52.302;4.634;2023-08-21T07:49:35;4.85;;;2.50;;
56653;SDS011;45096;52.302;4.634;2023-08-21T07:52:00;4.25;;;2.47;;
56653;SDS011;45096;52.302;4.634;2023-08-21T07:54:27;5.65;;;2.30;;
56653;SDS011;45096;52.302;4.634;2023-08-21T07:56:54;3.00;;;2.10;;
56653;SDS011;45096;52.302;4.634;2023-08-21T07:59:19;4.15;;;2.15;;
56653;SDS011;45096;52.302;4.634;2023-08-21T08:01:45;4.35;;;2.08;;
56653;SDS011;45096;52.302;4.634;2023-08-21T08:04:10;3.58;;;2.10;;
56653;SDS011;45096;52.302;4.634;2023-08-21T08:06:36;7.57;;;2.42;;
56653;SDS011;45096;52.302;4.634;2023-08-21T08:09:01;6.38;;;2.28;;
56653;SDS011;45096;52.302;4.634;2023-08-21T08:11:27;4.82;;;2.42;;
56653;SDS011;45096;52.302;4.634;2023-08-21T08:13:54;4.93;;;2.47;;
56653;SDS011;45096;52.302;4.634;2023-08-21T08:16:19;4.28;;;2.30;;
56653;SDS011;45096;52.302;4.634;2023-08-21T08:18:44;5.82;;;2.38;;
56653;SDS011;45096;52.302;4.634;2023-08-21T08:21:12;3.88;;;2.28;;
56653;SDS011;45096;52.302;4.634;2023-08-21T08:23:38;3.60;;;2.42;;
56653;SDS011;45096;52.302;4.634;2023-08-21T08:26:03;3.90;;;2.42;;
56653;SDS011;45096;52.302;4.634;2023-08-21T08:28:29;3.63;;;2.25;;
56653;SDS011;45096;52.302;4.634;2023-08-21T08:30:55;2.38;;;1.70;;
56653;SDS011;45096;52.302;4.634;2023-08-21T08:33:21;3.03;;;1.80;;
56653;SDS011;45096;52.302;4.634;2023-08-21T08:35:46;5.40;;;2.13;;
56653;SDS011;45096;52.302;4.634;2023-08-21T08:38:12;4.45;;;1.90;;
56653;SDS011;45096;52.302;4.634;2023-08-21T08:40:40;6.40;;;2.20;;
56653;SDS011;45096;52.302;4.634;2023-08-21T08:43:08;3.30;;;2.00;;
56653;SDS011;45096;52.302;4.634;2023-08-21T08:45:34;3.72;;;2.10;;
56653;SDS011;45096;52.302;4.634;2023-08-21T08:48:01;2.55;;;1.90;;
56653;SDS011;45096;52.302;4.634;2023-08-21T08:50:27;3.95;;;1.80;;
56653;SDS011;45096;52.302;4.634;2023-08-21T08:52:53;4.63;;;1.95;;
56653;SDS011;45096;52.302;4.634;2023-08-21T08:55:19;5.07;;;1.95;;
56653;SDS011;45096;52.302;4.634;2023-08-21T08:57:44;5.43;;;2.38;;
56653;SDS011;45096;52.302;4.634;2023-08-21T09:00:10;4.15;;;1.95;;
56653;SDS011;45096;52.302;4.634;2023-08-21T09:02:36;2.22;;;1.58;;
56653;SDS011;45096;52.302;4.634;2023-08-21T09:05:03;3.17;;;1.73;;
56653;SDS011;45096;52.302;4.634;2023-08-21T09:07:29;3.58;;;1.83;;
56653;SDS011;45096;52.302;4.634;2023-08-21T09:09:54;3.95;;;1.80;;
56653;SDS011;45096;52.302;4.634;2023-08-21T09:12:20;3.67;;;1.60;;
56653;SDS011;45096;52.302;4.634;2023-08-21T09:14:46;2.13;;;1.50;;
56653;SDS011;45096;52.302;4.634;2023-08-21T09:17:11;5.10;;;1.40;;
56653;SDS011;45096;52.302;4.634;2023-08-21T09:19:37;3.30;;;1.58;;
56653;SDS011;45096;52.302;4.634;2023-08-21T09:22:13;2.22;;;1.60;;
56653;SDS011;45096;52.302;4.634;2023-08-21T09:24:40;3.53;;;1.48;;
56653;SDS011;45096;52.302;4.634;2023-08-21T09:27:12;2.67;;;1.73;;
56653;SDS011;45096;52.302;4.634;2023-08-21T09:29:39;2.67;;;1.73;;
56653;SDS011;45096;52.302;4.634;2023-08-21T09:32:05;2.13;;;1.90;;
56653;SDS011;45096;52.302;4.634;2023-08-21T09:34:33;3.95;;;1.77;;
56653;SDS011;45096;52.302;4.634;2023-08-21T09:36:59;4.00;;;1.63;;
56653;SDS011;45096;52.302;4.634;2023-08-21T09:39:27;4.15;;;1.70;;
56653;SDS011;45096;52.302;4.634;2023-08-21T09:41:57;3.38;;;1.70;;
56653;SDS011;45096;52.302;4.634;2023-08-21T09:44:23;4.95;;;1.80;;
56653;SDS011;45096;52.302;4.634;2023-08-21T09:46:48;3.83;;;2.13;;
56653;SDS011;45096;52.302;4.634;2023-08-21T09:49:14;3.80;;;1.27;;
56653;SDS011;45096;52.302;4.634;2023-08-21T09:51:40;3.60;;;1.67;;
56653;SDS011;45096;52.302;4.634;2023-08-21T09:54:05;1.50;;;1.40;;
56653;SDS011;45096;52.302;4.634;2023-08-21T09:56:33;1.65;;;1.23;;
56653;SDS011;45096;52.302;4.634;2023-08-21T09:58:58;3.47;;;1.65;;
56653;SDS011;45096;52.302;4.634;2023-08-21T10:01:24;2.30;;;1.75;;
56653;SDS011;45096;52.302;4.634;2023-08-21T10:03:51;4.55;;;1.88;;
56653;SDS011;45096;52.302;4.634;2023-08-21T10:06:19;5.35;;;2.05;;
56653;SDS011;45096;52.302;4.634;2023-08-21T10:08:45;3.70;;;1.80;;
56653;SDS011;45096;52.302;4.634;2023-08-21T10:11:11;2.78;;;1.60;;
56653;SDS011;45096;52.302;4.634;2023-08-21T10:13:38;2.33;;;1.70;;
56653;SDS011;45096;52.302;4.634;2023-08-21T10:16:04;2.92;;;1.40;;
56653;SDS011;45096;52.302;4.634;2023-08-21T10:18:30;3.28;;;1.55;;
56653;SDS011;45096;52.302;4.634;2023-08-21T10:20:56;3.63;;;1.33;;
56653;SDS011;45096;52.302;4.634;2023-08-21T10:23:35;4.03;;;1.50;;
56653;SDS011;45096;52.302;4.634;2023-08-21T10:26:06;1.50;;;1.38;;
56653;SDS011;45096;52.302;4.634;2023-08-21T10:31:25;3.47;;;1.40;;
56653;SDS011;45096;52.302;4.634;2023-08-21T10:33:54;2.90;;;1.88;;
56653;SDS011;45096;52.302;4.634;2023-08-21T10:39:33;3.25;;;1.30;;
56653;SDS011;45096;52.302;4.634;2023-08-21T10:42:00;1.67;;;1.40;;
56653;SDS011;45096;52.302;4.634;2023-08-21T10:44:37;4.13;;;1.33;;
56653;SDS011;45096;52.302;4.634;2023-08-21T10:47:15;2.00;;;1.10;;
56653;SDS011;45096;52.302;4.634;2023-08-21T10:49:41;2.95;;;1.30;;
56653;SDS011;45096;52.302;4.634;2023-08-21T10:52:07;1.42;;;1.02;;
56653;SDS011;45096;52.302;4.634;2023-08-21T10:54:42;1.60;;;1.48;;
56653;SDS011;45096;52.302;4.634;2023-08-21T10:57:08;3.83;;;1.45;;
56653;SDS011;45096;52.302;4.634;2023-08-21T10:59:33;1.30;;;1.20;;
56653;SDS011;45096;52.302;4.634;2023-08-21T11:02:00;2.60;;;1.48;;
56653;SDS011;45096;52.302;4.634;2023-08-21T11:04:25;1.45;;;1.20;;
56653;SDS011;45096;52.302;4.634;2023-08-21T11:06:51;2.22;;;1.40;;
56653;SDS011;45096;52.302;4.634;2023-08-21T11:09:16;1.10;;;1.02;;
56653;SDS011;45096;52.302;4.634;2023-08-21T11:11:42;1.25;;;1.15;;
56653;SDS011;45096;52.302;4.634;2023-08-21T11:14:08;2.40;;;1.00;;
56653;SDS011;45096;52.302;4.634;2023-08-21T11:16:33;1.17;;;1.10;;
56653;SDS011;45096;52.302;4.634;2023-08-21T11:19:04;1.25;;;1.02;;
56653;SDS011;45096;52.302;4.634;2023-08-21T11:21:29;2.38;;;1.50;;
56653;SDS011;45096;52.302;4.634;2023-08-21T11:23:55;1.85;;;0.90;;
56653;SDS011;45096;52.302;4.634;2023-08-21T11:26:20;2.78;;;1.33;;
56653;SDS011;45096;52.302;4.634;2023-08-21T11:28:46;1.77;;;1.30;;
56653;SDS011;45096;52.302;4.634;2023-08-21T11:31:12;1.40;;;1.30;;
56653;SDS011;45096;52.302;4.634;2023-08-21T11:33:37;3.17;;;1.40;;
56653;SDS011;45096;52.302;4.634;2023-08-21T11:36:04;2.45;;;1.02;;
56653;SDS011;45096;52.302;4.634;2023-08-21T11:38:30;1.90;;;1.25;;
56653;SDS011;45096;52.302;4.634;2023-08-21T11:40:56;2.90;;;1.25;;
56653;SDS011;45096;52.302;4.634;2023-08-21T11:43:22;1.00;;;1.00;;
56653;SDS011;45096;52.302;4.634;2023-08-21T11:45:48;5.50;;;1.65;;
56653;SDS011;45096;52.302;4.634;2023-08-21T11:48:14;2.60;;;1.23;;
56653;SDS011;45096;52.302;4.634;2023-08-21T11:50:40;1.20;;;1.00;;
56653;SDS011;45096;52.302;4.634;2023-08-21T11:53:06;1.90;;;1.00;;
56653;SDS011;45096;52.302;4.634;2023-08-21T11:55:32;1.60;;;1.13;;
56653;SDS011;45096;52.302;4.634;2023-08-21T11:57:59;2.33;;;1.30;;
56653;SDS011;45096;52.302;4.634;2023-08-21T12:00:27;2.75;;;1.55;;
56653;SDS011;45096;52.302;4.634;2023-08-21T12:02:54;2.42;;;1.17;;
56653;SDS011;45096;52.302;4.634;2023-08-21T12:05:19;1.48;;;1.02;;
56653;SDS011;45096;52.302;4.634;2023-08-21T12:07:45;2.05;;;1.33;;
56653;SDS011;45096;52.302;4.634;2023-08-21T12:10:12;3.58;;;1.25;;
56653;SDS011;45096;52.302;4.634;2023-08-21T12:12:37;3.63;;;1.45;;
56653;SDS011;45096;52.302;4.634;2023-08-21T12:15:03;2.83;;;1.20;;
56653;SDS011;45096;52.302;4.634;2023-08-21T12:17:28;2.72;;;1.15;;
56653;SDS011;45096;52.302;4.634;2023-08-21T12:19:54;2.55;;;1.67;;
56653;SDS011;45096;52.302;4.634;2023-08-21T12:22:19;2.15;;;1.10;;
56653;SDS011;45096;52.302;4.634;2023-08-21T12:24:44;3.50;;;1.48;;
56653;SDS011;45096;52.302;4.634;2023-08-21T12:27:11;2.03;;;1.25;;
56653;SDS011;45096;52.302;4.634;2023-08-21T12:29:37;4.32;;;1.38;;
56653;SDS011;45096;52.302;4.634;2023-08-21T12:32:02;2.13;;;1.08;;
56653;SDS011;45096;52.302;4.634;2023-08-21T12:34:28;3.78;;;1.08;;
56653;SDS011;45096;52.302;4.634;2023-08-21T12:36:53;1.45;;;1.00;;
56653;SDS011;45096;52.302;4.634;2023-08-21T12:39:19;2.53;;;1.13;;
56653;SDS011;45096;52.302;4.634;2023-08-21T12:41:45;2.55;;;1.00;;
56653;SDS011;45096;52.302;4.634;2023-08-21T12:44:12;1.63;;;0.95;;
56653;SDS011;45096;52.302;4.634;2023-08-21T12:46:38;3.78;;;1.17;;
56653;SDS011;45096;52.302;4.634;2023-08-21T12:49:03;2.08;;;1.00;;
56653;SDS011;45096;52.302;4.634;2023-08-21T12:51:28;1.60;;;1.20;;
56653;SDS011;45096;52.302;4.634;2023-08-21T12:53:54;3.47;;;0.80;;
56653;SDS011;45096;52.302;4.634;2023-08-21T12:56:19;2.35;;;1.08;;
56653;SDS011;45096;52.302;4.634;2023-08-21T12:58:45;2.47;;;1.00;;
56653;SDS011;45096;52.302;4.634;2023-08-21T13:01:12;2.85;;;1.13;;
56653;SDS011;45096;52.302;4.634;2023-08-21T13:03:38;3.05;;;1.10;;
56653;SDS011;45096;52.302;4.634;2023-08-21T13:06:03;1.75;;;0.98;;
56653;SDS011;45096;52.302;4.634;2023-08-21T13:08:29;3.42;;;1.00;;
56653;SDS011;45096;52.302;4.634;2023-08-21T13:10:54;7.70;;;1.63;;
56653;SDS011;45096;52.302;4.634;2023-08-21T13:13:19;1.25;;;1.00;;
56653;SDS011;45096;52.302;4.634;2023-08-21T13:15:45;1.63;;;1.00;;
56653;SDS011;45096;52.302;4.634;2023-08-21T13:18:12;2.08;;;1.17;;
56653;SDS011;45096;52.302;4.634;2023-08-21T13:20:37;2.20;;;1.30;;
56653;SDS011;45096;52.302;4.634;2023-08-21T13:23:03;2.50;;;0.75;;
56653;SDS011;45096;52.302;4.634;2023-08-21T13:25:28;2.88;;;1.13;;
56653;SDS011;45096;52.302;4.634;2023-08-21T13:27:54;2.50;;;0.88;;
56653;SDS011;45096;52.302;4.634;2023-08-21T13:30:19;5.68;;;2.03;;
56653;SDS011;45096;52.302;4.634;2023-08-21T13:32:45;1.60;;;0.93;;
56653;SDS011;45096;52.302;4.634;2023-08-21T13:35:12;2.25;;;1.25;;
56653;SDS011;45096;52.302;4.634;2023-08-21T13:37:38;2.10;;;1.02;;
56653;SDS011;45096;52.302;4.634;2023-08-21T13:40:04;3.00;;;0.98;;
56653;SDS011;45096;52.302;4.634;2023-08-21T13:42:30;1.75;;;1.10;;
56653;SDS011;45096;52.302;4.634;2023-08-21T13:44:55;1.45;;;1.17;;
56653;SDS011;45096;52.302;4.634;2023-08-21T13:47:21;1.63;;;1.02;;
56653;SDS011;45096;52.302;4.634;2023-08-21T13:49:46;2.42;;;1.13;;
56653;SDS011;45096;52.302;4.634;2023-08-21T13:52:13;2.17;;;1.08;;
56653;SDS011;45096;52.302;4.634;2023-08-21T13:54:39;1.73;;;1.08;;
56653;SDS011;45096;52.302;4.634;2023-08-21T13:57:04;2.22;;;1.05;;
56653;SDS011;45096;52.302;4.634;2023-08-21T13:59:29;2.22;;;1.25;;
56653;SDS011;45096;52.302;4.634;2023-08-21T14:01:55;1.27;;;0.90;;
56653;SDS011;45096;52.302;4.634;2023-08-21T14:04:20;5.97;;;1.33;;
56653;SDS011;45096;52.302;4.634;2023-08-21T14:06:46;3.10;;;0.95;;
56653;SDS011;45096;52.302;4.634;2023-08-21T14:09:12;1.50;;;0.90;;
56653;SDS011;45096;52.302;4.634;2023-08-21T14:11:38;1.05;;;0.80;;
56653;SDS011;45096;52.302;4.634;2023-08-21T14:14:03;2.25;;;1.02;;
56653;SDS011;45096;52.302;4.634;2023-08-21T14:16:29;2.90;;;1.20;;
56653;SDS011;45096;52.302;4.634;2023-08-21T14:18:54;2.65;;;1.20;;
56653;SDS011;45096;52.302;4.634;2023-08-21T14:21:19;1.30;;;1.20;;
56653;SDS011;45096;52.302;4.634;2023-08-21T14:23:45;2.10;;;1.10;;
56653;SDS011;45096;52.302;4.634;2023-08-21T14:26:11;2.38;;;1.13;;
56653;SDS011;45096;52.302;4.634;2023-08-21T14:28:37;3.53;;;1.30;;
56653;SDS011;45096;52.302;4.634;2023-08-21T14:31:02;2.83;;;1.65;;
56653;SDS011;45096;52.302;4.634;2023-08-21T14:33:28;3.33;;;1.40;;
56653;SDS011;45096;52.302;4.634;2023-08-21T14:35:53;5.32;;;1.58;;
56653;SDS011;45096;52.302;4.634;2023-08-21T14:38:19;3.47;;;1.15;;
56653;SDS011;45096;52.302;4.634;2023-08-21T14:40:44;4.22;;;1.63;;
56653;SDS011;45096;52.302;4.634;2023-08-21T14:43:11;4.90;;;1.30;;
56653;SDS011;45096;52.302;4.634;2023-08-21T14:45:36;2.85;;;1.83;;
56653;SDS011;45096;52.302;4.634;2023-08-21T14:48:02;4.10;;;1.13;;